• Join FlightAware (Why Join?)
  • Login
  • US Flag 
06:12AM EDT


 

Airport Tracker/Info


-or-


 

Live Flight TrackerFlight Track Log ✈ AFL150 ✈ 04-Nov-2013 ✈ UUEE / SVO - MUHA / HAV

Flight Track Log - Related Links

Times and Time Zones

All times are in EST time to prevent confusion due to time zone crossing. See the AFL150 flight status page for this flight to view local times or setup timezone preferences in your user account.

Time Position Orientation Groundspeed Altitude Reporting Facility
EST Latitude Longitude Course Direction KTS MPH feet Rate Location/Type
04:11AM 55.9760 37.4420 253° West 184 212 1,300  Level FlightAware
04:12AM 55.9810 37.4840 78° East 177 204 2,600 1,860 Climbing FlightAware
04:12AM 55.9880 37.5310 75° East 207 238 3,200 1,140 Climbing FlightAware
04:13AM 55.9990 37.6030 75° East 236 272 4,000 1,020 Climbing FlightAware
04:14AM 56.0110 37.6870 76° East 286 329 4,600 1,680 Climbing FlightAware
04:14AM 56.0440 37.7620 52° Northeast 313 360 6,200 2,400 Climbing FlightAware
04:15AM 56.0800 37.7630 North 304 350 7,200 2,220 Climbing FlightAware
04:15AM 56.1060 37.7240 320° Northwest 283 326 8,100 2,160 Climbing FlightAware
04:16AM 56.1030 37.6510 266° West 255 293 9,400 2,040 Climbing FlightAware
04:16AM 56.0810 37.5860 239° Southwest 272 313 10,500 1,500 Climbing FlightAware
04:17AM 56.0630 37.4810 253° West 320 368 11,400 1,800 Climbing FlightAware
04:18AM 56.0520 37.3890 258° West 320 368 12,900 2,520 Climbing FlightAware
04:18AM 56.0550 37.2940 273° West 343 395 14,400 2,220 Climbing FlightAware
04:19AM 56.0760 37.2030 292° West 351 404 15,500 1,980 Climbing FlightAware
04:20AM 56.0990 37.0920 290° West 360 414 16,900 1,920 Climbing FlightAware
04:20AM 56.1190 36.9930 290° West 366 421 18,000 1,980 Climbing FlightAware
04:21AM 56.1560 36.8190 291° West 371 427 20,100 1,980 Climbing FlightAware
04:22AM 56.1760 36.7150 289° West 372 428 21,200 1,860 Climbing FlightAware
04:22AM 56.1970 36.6120 290° West 376 433 22,300 1,680 Climbing FlightAware
04:23AM 56.2200 36.4960 290° West 381 438 23,300 1,500 Climbing FlightAware
04:24AM 56.2380 36.4050 290° West 383 441 24,100 1,440 Climbing FlightAware
04:24AM 56.2590 36.3010 290° West 388 447 24,900 1,320 Climbing FlightAware
04:25AM 56.2790 36.1960 289° West 392 451 25,700 1,260 Climbing FlightAware
04:25AM 56.3010 36.0850 290° West 397 457 26,400 1,080 Climbing FlightAware
04:26AM 56.3290 35.9420 290° West 404 465 27,200 1,080 Climbing FlightAware
04:27AM 56.3560 35.7980 289° West 409 471 28,100 1,020 Climbing FlightAware
04:28AM 56.3800 35.6710 289° West 417 480 28,700 960 Climbing FlightAware
04:28AM 56.4040 35.5490 290° West 422 486 29,300 960 Climbing FlightAware
04:29AM 56.4250 35.4360 289° West 426 490 29,900 900 Climbing FlightAware
04:29AM 56.4510 35.2960 289° West 430 495 30,500 900 Climbing FlightAware
04:30AM 56.4820 35.1640 293° West 441 507 31,100 900 Climbing FlightAware
04:31AM 56.5120 35.0640 299° West 447 514 31,600 1,260 Climbing FlightAware
04:31AM 56.5540 34.9560 305° West 446 513 32,500 1,440 Climbing FlightAware
04:32AM 56.6080 34.8480 312° West 448 516 33,400 780 Climbing FlightAware
04:32AM 56.6650 34.7570 319° Northwest 465 535 33,500 180 Climbing FlightAware
04:33AM 56.7480 34.6580 327° Northwest 482 555 33,700 180 Climbing FlightAware
04:34AM 56.8160 34.5850 330° Northwest 489 563 33,800 240 Climbing FlightAware
04:34AM 56.8920 34.4970 328° Northwest 495 570 34,000 120 Climbing FlightAware
04:35AM 56.9680 34.4060 327° Northwest 497 572 34,000  Level FlightAware
04:36AM 57.1040 34.2440 327° Northwest 493 567 34,000  Level FlightAware
04:37AM 57.1500 34.1890 327° Northwest 491 565 34,000  Level FlightAware
04:38AM 57.2910 34.0180 327° Northwest 492 566 34,000  Level FlightAware
04:38AM 57.3510 33.9450 327° Northwest 494 568 34,000  Level FlightAware
04:39AM 57.4270 33.8510 326° Northwest 497 572 34,000  Level FlightAware
04:40AM 57.5160 33.7410 326° Northwest 499 574 34,000  Level FlightAware
04:41AM 57.6010 33.6350 326° Northwest 499 574 34,000  Level FlightAware
04:42AM 57.7100 33.5000 327° Northwest 500 575 34,000  Level FlightAware
04:42AM 57.7770 33.4160 326° Northwest 503 579 34,000  Level FlightAware
04:43AM 57.8260 33.3540 326° Northwest 505 581 34,000  Level FlightAware
04:43AM 57.9140 33.2420 326° Northwest 506 582 34,000  Level FlightAware
04:44AM 57.9710 33.1690 326° Northwest 506 582 34,000  Level FlightAware
04:44AM 58.0490 33.0700 326° Northwest 506 582 34,000  Level FlightAware
04:45AM 58.1110 32.9900 326° Northwest 507 583 34,000  Level FlightAware
04:46AM 58.2030 32.8720 326° Northwest 507 583 34,000  Level FlightAware
04:46AM 58.2650 32.7910 326° Northwest 508 585 34,000  Level FlightAware
04:47AM 58.3240 32.7140 326° Northwest 509 586 34,000  Level FlightAware
04:48AM 58.4130 32.5960 325° Northwest 509 586 34,000  Level FlightAware
04:48AM 58.4740 32.5150 325° Northwest 509 586 34,000  Level FlightAware
04:49AM 58.5800 32.3590 323° Northwest 506 582 34,000  Level FlightAware
04:50AM 58.6490 32.2460 320° Northwest 506 582 34,000  Level FlightAware
04:50AM 58.6880 32.1800 319° Northwest 506 582 34,000  Level FlightAware
04:51AM 58.7930 32.0100 320° Northwest 507 583 34,000  Level FlightAware
04:52AM 58.9000 31.8340 320° Northwest 507 583 34,000  Level FlightAware
04:53AM 59.0050 31.6600 320° Northwest 506 582 34,000  Level FlightAware
04:54AM 59.0750 31.5410 319° Northwest 505 581 34,000  Level FlightAware
04:55AM 59.1820 31.3260 314° West 491 565 34,000  Level FlightAware
04:55AM 59.2130 31.1700 291° West 482 555 34,000  Level FlightAware
04:56AM 59.2390 31.0270 290° West 482 555 34,000  Level FlightAware
04:57AM 59.2710 30.8410 289° West 481 554 34,000  Level FlightAware
04:58AM 59.3070 30.6330 289° West 482 555 34,000  Level FlightAware
04:58AM 59.3350 30.4670 288° West 483 556 34,000  Level FlightAware
04:59AM 59.3620 30.3080 288° West 482 555 34,000  Level FlightAware
05:00AM 59.3940 30.1130 288° West 483 556 34,000  Level FlightAware
05:00AM 59.4240 29.9310 288° West 484 557 34,000  Level FlightAware
05:01AM 59.4490 29.7750 288° West 485 558 34,000  Level FlightAware
05:02AM 59.4800 29.5820 288° West 485 558 34,000  Level FlightAware
05:03AM 59.5100 29.3910 287° West 486 559 34,000  Level FlightAware
05:03AM 59.5360 29.2240 287° West 487 560 34,000  Level FlightAware
05:04AM 59.5610 29.0590 287° West 488 562 34,000  Level FlightAware
05:04AM 59.5800 28.9350 287° West 489 563 34,000  Level FlightAware
05:05AM 59.6030 28.7860 287° West 491 565 34,000  Level FlightAware
05:06AM 59.6230 28.6530 287° West 492 566 34,000  Level FlightAware
05:06AM 59.6460 28.4970 286° West 493 567 34,000  Level FlightAware
05:07AM 59.6700 28.3380 287° West 494 568 34,000  Level FlightAware
05:08AM 59.7060 28.0920 286° West 495 570 34,000  Level FlightAware
05:08AM 59.7270 27.9460 286° West 495 570 34,000  Level FlightAware
05:09AM 59.7490 27.7880 286° West 495 570 34,000  Level FlightAware
05:10AM 59.7770 27.5910 286° West 495 570 34,000  Level FlightAware
05:10AM 59.8000 27.4300 286° West 495 570 34,000  Level FlightAware
05:11AM 59.8310 27.2020 285° West 497 572 34,000  Level FlightAware
05:12AM 59.8590 26.9940 285° West 497 572 34,000  Level FlightAware
05:13AM 59.8850 26.8010 285° West 495 570 34,000  Level FlightAware
05:13AM 59.9080 26.6310 285° West 494 568 34,000  Level FlightAware
05:14AM 59.9340 26.4520 286° West 493 567 34,000  Level FlightAware
05:15AM 59.9750 26.2540 293° West 496 571 34,000  Level FlightAware
05:15AM 60.0130 26.1230 300° West 499 574 34,000  Level FlightAware
05:16AM 60.0720 25.9380 303° West 493 567 34,000  Level FlightAware
05:17AM 60.1020 25.8040 294° West 493 567 34,000  Level FlightAware
05:17AM 60.1430 25.6310 296° West 492 566 34,000  Level FlightAware
05:18AM 60.1830 25.4580 295° West 492 566 34,000  Level FlightAware
05:19AM 60.2150 25.3230 296° West 493 567 34,000  Level FlightAware
05:19AM 60.2470 25.1850 295° West 494 568 34,000  Level FlightAware
05:20AM 60.2750 25.0630 295° West 494 568 34,000  Level FlightAware
05:20AM 60.3150 24.8870 295° West 496 571 34,000  Level FlightAware
05:21AM 60.3530 24.7220 295° West 498 573 34,000  Level FlightAware
05:21AM 60.3830 24.5860 294° West 497 572 34,000  Level FlightAware
05:22AM 60.4250 24.4010 295° West 495 570 34,000  Level FlightAware
05:23AM 60.4580 24.2500 294° West 495 570 34,000  Level FlightAware
05:23AM 60.5010 24.0820 298° West 496 571 34,000  Level FlightAware
05:24AM 60.5380 23.9480 299° West 496 571 34,000  Level FlightAware
05:25AM 60.5860 23.7670 298° West 496 571 34,000  Level FlightAware
05:25AM 60.6300 23.5990 298° West 490 564 34,000  Level FlightAware
05:27AM 60.6980 23.3360 298° West 489 563 34,000  Level FlightAware
05:27AM 60.7440 23.1540 297° West 482 555 34,000  Level FlightAware
05:28AM 60.7760 23.0280 298° West 481 554 34,000  Level FlightAware
05:28AM 60.8180 22.8610 297° West 484 557 34,000  Level FlightAware
05:29AM 60.8550 22.7150 298° West 485 558 34,000  Level FlightAware
05:30AM 60.8920 22.5650 297° West 483 556 34,000  Level FlightAware
05:30AM 60.9320 22.4050 297° West 481 554 34,000  Level FlightAware
05:31AM 60.9896 22.1952 300° West 486 559 34,000  Level FlightAware ADS-B (YKMB / KRB)
05:32AM 61.0653 21.9548 303° West 479 551 34,000  Level FlightAware ADS-B (YKMB / KRB)
05:33AM 61.1322 21.7342 302° West 472 543 34,000  Level FlightAware ADS-B (YKMB / KRB)
05:34AM 61.1703 21.6071 302° West 471 542 34,000  Level FlightAware ADS-B (YKMB / KRB)
05:34AM 61.2047 21.4921 302° West 469 540 34,000  Level FlightAware ADS-B (YKMB / KRB)
05:36AM 61.3095 21.1375 302° West 468 539 34,000  Level FlightAware ADS-B (YKMB / KRB)
05:36AM 61.3431 21.0228 301° West 473 544 34,000  Level FlightAware ADS-B (YKMB / KRB)
05:37AM 61.3836 20.8836 301° West 471 542 34,000  Level FlightAware ADS-B (YKMB / KRB)
05:38AM 61.4343 20.7085 301° West 471 542 34,000  Level FlightAware ADS-B (YKMB / KRB)
05:38AM 61.4826 20.5403 301° West 470 541 34,000  Level FlightAware ADS-B (YKMB / KRB)
05:39AM 61.5355 20.3545 301° West 470 541 34,000  Level FlightAware ADS-B (YKMB / KRB)
05:40AM 61.6040 20.1100 301° West 469 540 34,000  Level FlightAware
05:41AM 61.6652 19.8921 301° West 463 533 34,000  Level FlightAware ADS-B (YKMB / KRB)
05:42AM 61.6971 19.7771 300° West 457 526 34,000  Level FlightAware ADS-B (YKMB / KRB)
05:42AM 61.7490 19.5880 300° West 464 534 34,000  Level FlightAware
05:43AM 61.7840 19.4570 300° West 463 533 34,000  Level FlightAware
05:44AM 61.8600 19.2290 305° West 473 544 34,000  Level FlightAware
05:45AM 61.9070 19.1290 315° West 475 547 34,000  Level FlightAware
05:46AM 62.0040 18.9250 315° West 475 547 34,000  Level FlightAware
05:46AM 62.0670 18.7890 315° West 480 552 34,000  Level FlightAware
05:47AM 62.1360 18.6430 315° West 482 555 34,000  Level FlightAware
05:48AM 62.2080 18.4890 315° West 483 556 34,000  Level FlightAware
05:48AM 62.2770 18.3400 315° West 482 555 34,000  Level FlightAware
05:49AM 62.3500 18.1800 315° West 483 556 34,000  Level FlightAware
05:50AM 62.4140 18.0390 314° West 482 555 34,000  Level FlightAware
05:51AM 62.4690 17.9190 315° West 483 556 34,000  Level FlightAware
05:51AM 62.5190 17.8070 314° West 485 558 34,000  Level FlightAware
05:52AM 62.5770 17.6790 315° West 484 557 34,000  Level FlightAware
05:52AM 62.6270 17.5660 314° West 485 558 34,000  Level FlightAware
05:53AM 62.7240 17.3450 314° West 482 555 34,000  Level FlightAware
05:54AM 62.7860 17.2040 314° West 483 556 34,000  Level FlightAware
05:55AM 62.8410 17.0790 314° West 483 556 34,000  Level FlightAware
05:55AM 62.8910 16.9630 313° West 485 558 34,000  Level FlightAware
05:56AM 62.9600 16.8020 313° West 481 554 34,000  Level FlightAware
05:56AM 63.0180 16.6660 313° West 476 548 34,000  Level FlightAware
05:57AM 63.0740 16.5350 313° West 474 545 34,000  Level FlightAware
05:58AM 63.1320 16.3970 313° West 474 545 34,000  Level FlightAware
05:58AM 63.1800 16.2830 313° West 471 542 34,000  Level FlightAware
05:59AM 63.2260 16.1730 313° West 468 539 34,000  Level FlightAware
05:59AM 63.2790 16.0460 313° West 466 536 34,000  Level FlightAware
06:00AM 63.3400 15.8970 312° West 467 537 34,000  Level FlightAware
06:01AM 63.3970 15.7590 313° West 467 537 34,000  Level FlightAware
06:01AM 63.4470 15.6370 313° West 467 537 34,000  Level FlightAware
06:02AM 63.5130 15.4730 312° West 467 537 34,000  Level FlightAware
06:03AM 63.5630 15.3490 312° West 466 536 34,000  Level FlightAware
06:03AM 63.6190 15.2100 312° West 465 535 34,000  Level FlightAware
06:04AM 63.6720 15.0760 312° West 461 531 34,000  Level FlightAware
06:05AM 63.7400 14.9050 312° West 461 531 34,000  Level FlightAware
06:05AM 63.7960 14.7600 311° West 461 531 34,000  Level FlightAware
06:06AM 63.8530 14.6150 312° West 458 527 34,000  Level FlightAware
06:07AM 63.9050 14.4790 311° West 458 527 34,000  Level FlightAware
06:07AM 63.9590 14.3410 312° West 461 531 34,000  Level FlightAware
06:08AM 64.0220 14.1750 311° West 457 526 34,000  Level FlightAware
06:09AM 64.0720 14.0430 311° West 472 543 34,000  Level FlightAware
06:09AM 64.1180 13.9210 311° West 474 545 34,000  Level FlightAware
06:10AM 64.1640 13.7990 311° West 475 547 34,000  Level FlightAware
06:10AM 64.2170 13.6560 310° West 474 545 34,000  Level FlightAware
06:11AM 64.2550 13.5540 311° West 475 547 34,000  Level FlightAware
06:12AM 64.3090 13.4080 311° West 476 548 34,000  Level FlightAware
06:12AM 64.3730 13.2340 310° West 476 548 34,000  Level FlightAware
06:13AM 64.4580 12.9990 310° West 474 545 34,000  Level FlightAware
06:14AM 64.4960 12.8920 310° West 474 545 34,000  Level FlightAware
06:14AM 64.5470 12.7490 310° West 473 544 34,000  Level FlightAware
06:15AM 64.6220 12.5400 310° West 473 544 34,000  Level FlightAware
06:16AM 64.6810 12.3700 309° West 475 547 34,000  Level FlightAware
06:17AM 64.7560 12.1560 309° West 476 548 34,000  Level FlightAware
06:17AM 64.8080 12.0050 309° West 474 545 34,000  Level FlightAware
06:18AM 64.8610 11.8520 309° West 474 545 34,000  Level FlightAware
06:19AM 64.9180 11.6850 309° West 475 547 34,000  Level FlightAware
06:19AM 64.9590 11.5630 308° West 475 547 34,000  Level FlightAware
06:20AM 65.0080 11.4190 309° West 476 548 34,000  Level FlightAware
06:21AM 65.0600 11.2630 308° West 474 545 34,000  Level FlightAware
06:21AM 65.1030 11.1350 309° West 475 547 34,000  Level FlightAware
06:22AM 65.1890 10.8740 308° West 473 544 34,000  Level FlightAware
06:23AM 65.2400 10.7160 308° West 471 542 34,000  Level FlightAware
06:23AM 65.2830 10.5840 308° West 472 543 34,000  Level FlightAware
06:24AM 65.3500 10.3760 308° West 472 543 34,000  Level FlightAware
06:25AM 65.3960 10.2320 308° West 473 544 34,000  Level FlightAware
06:25AM 65.4440 10.0780 307° West 473 544 34,000  Level FlightAware
06:26AM 65.4910 9.9310 308° West 471 542 34,000  Level FlightAware
06:27AM 65.5410 9.7720 307° West 467 537 34,000  Level FlightAware
06:27AM 65.5880 9.6200 307° West 465 535 34,000  Level FlightAware
06:28AM 65.6290 9.4870 307° West 465 535 34,000  Level FlightAware
06:28AM 65.6800 9.3200 307° West 464 534 34,000  Level FlightAware
06:29AM 65.7260 9.1680 306° West 463 533 34,000  Level FlightAware
06:30AM 65.7810 8.9880 307° West 461 531 34,000  Level FlightAware
06:31AM 65.8700 8.6910 306° West 461 531 34,000  Level FlightAware
06:31AM 65.9090 8.5590 306° West 459 528 34,000  Level FlightAware
06:32AM 65.9620 8.3770 306° West 455 524 34,000  Level FlightAware
06:33AM 66.0050 8.2260 305° West 455 524 34,000  Level FlightAware
06:33AM 66.0300 8.1390 305° West 455 524 34,000  Level FlightAware
06:34AM 66.0970 7.9110 306° West 452 520 34,000  Level FlightAware
06:35AM 66.1430 7.7510 305° West 452 520 34,000  Level FlightAware
06:35AM 66.1670 7.6670 305° West 451 519 34,000  Level FlightAware
06:36AM 66.2150 7.4890 304° West 451 519 34,000  Level FlightAware
06:37AM 66.2790 7.2680 306° West 447 514 34,000  Level FlightAware
06:37AM 66.3220 7.1140 305° West 447 514 34,000  Level FlightAware
06:38AM 66.3610 6.9690 304° West 448 516 34,000  Level FlightAware
06:39AM 66.4080 6.7940 304° West 448 516 34,000  Level FlightAware
06:39AM 66.4440 6.6620 304° West 448 516 34,000  Level FlightAware
06:40AM 66.4790 6.5310 304° West 448 516 34,000  Level FlightAware
06:40AM 66.5030 6.4430 304° West 448 516 34,000  Level FlightAware
06:41AM 66.5510 6.2630 304° West 448 516 34,000  Level FlightAware
06:42AM 66.5880 6.1270 304° West 448 516 34,000  Level FlightAware
06:42AM 66.6230 5.9950 304° West 448 516 34,000  Level FlightAware
06:43AM 66.6580 5.8620 304° West 448 516 34,000  Level FlightAware
06:45AM 66.7640 5.4670 304° West 448 516 34,000  Level FlightAware
06:45AM 66.8120 5.2850 304° West 448 516 34,000  Level FlightAware
06:46AM 66.8590 5.1070 304° West 448 516 34,000  Level FlightAware
06:47AM 66.8950 4.9730 304° West 448 516 34,000  Level FlightAware
06:47AM 66.9180 4.8830 303° West 448 516 34,000 -60 Level FlightAware
06:51AM 66.9632 3.8774 277° West  Level Estimated
06:52AM 66.9757 3.5720 276° West  Level Estimated
06:53AM 66.9875 3.2662 276° West  Level Estimated
06:54AM 66.9988 2.9602 276° West  Level Estimated
06:55AM 67.0095 2.6539 275° West  Level Estimated
06:56AM 67.0196 2.3473 275° West  Level Estimated
06:57AM 67.0291 2.0405 275° West  Level Estimated
06:58AM 67.0380 1.7335 274° West  Level Estimated
06:59AM 67.0463 1.4262 274° West  Level Estimated
07:00AM 67.0540 1.1187 274° West  Level Estimated
07:01AM 67.0612 0.8111 274° West  Level Estimated
07:02AM 67.0677 0.5032 273° West  Level Estimated
07:03AM 67.0737 0.1952 273° West  Level Estimated
07:04AM 67.0790 -0.1129 273° West  Level Estimated
07:05AM 67.0838 -0.4211 272° West  Level Estimated
07:06AM 67.0880 -0.7295 272° West  Level Estimated
07:07AM 67.0915 -1.0380 272° West  Level Estimated
07:08AM 67.0945 -1.3466 272° West  Level Estimated
07:09AM 67.0969 -1.6552 271° West  Level Estimated
07:10AM 67.0986 -1.9639 271° West  Level Estimated
07:11AM 67.0998 -2.2726 271° West  Level Estimated
07:12AM 67.1004 -2.5813 270° West  Level Estimated
07:13AM 67.1004 -2.8901 270° West  Level Estimated
07:14AM 67.0998 -3.1988 270° West  Level Estimated
07:15AM 67.0986 -3.5075 270° West  Level Estimated
07:16AM 67.0968 -3.8162 269° West  Level Estimated
07:17AM 67.0944 -4.1248 269° West  Level Estimated
07:18AM 67.0915 -4.4334 269° West  Level Estimated
07:19AM 67.0879 -4.7419 268° West  Level Estimated
07:20AM 67.0837 -5.0503 268° West  Level Estimated
07:21AM 67.0789 -5.3585 268° West  Level Estimated
07:22AM 67.0735 -5.6666 268° West  Level Estimated
07:23AM 67.0676 -5.9746 267° West  Level Estimated
07:24AM 67.0610 -6.2825 267° West  Level Estimated
07:25AM 67.0539 -6.5901 267° West  Level Estimated
07:26AM 67.0461 -6.8976 266° West  Level Estimated
07:27AM 67.0378 -7.2048 266° West  Level Estimated
07:28AM 67.0289 -7.5119 266° West  Level Estimated
07:29AM 67.0194 -7.8187 266° West  Level Estimated
07:30AM 67.0092 -8.1252 265° West  Level Estimated
07:31AM 66.9986 -8.4316 265° West  Level Estimated
07:32AM 66.9873 -8.7376 265° West  Level Estimated
07:33AM 66.9754 -9.0433 264° West  Level Estimated
07:34AM 66.9629 -9.3487 264° West  Level Estimated
07:35AM 66.9499 -9.6538 264° West  Level Estimated
07:36AM 66.9363 -9.9586 264° West  Level Estimated
07:37AM 66.9221 -10.2630 263° West  Level Estimated
07:38AM 66.9073 -10.5671 263° West  Level Estimated
07:39AM 66.8919 -10.8708 263° West  Level Estimated
07:40AM 66.8759 -11.1741 263° West  Level Estimated
07:41AM 66.8594 -11.4770 262° West  Level Estimated
07:42AM 66.8423 -11.7795 262° West  Level Estimated
07:43AM 66.8246 -12.0815 262° West  Level Estimated
07:44AM 66.8063 -12.3831 261° West  Level Estimated
07:45AM 66.7875 -12.6843 261° West  Level Estimated
07:46AM 66.7681 -12.9850 261° West  Level Estimated
07:47AM 66.7481 -13.2852 261° West  Level Estimated
07:48AM 66.7275 -13.5849 260° West  Level Estimated
07:49AM 66.7064 -13.8841 260° West  Level Estimated
07:50AM 66.6847 -14.1828 260° West  Level Estimated
07:51AM 66.6625 -14.4810 259° West  Level Estimated
07:52AM 66.6397 -14.7786 259° West  Level Estimated
07:53AM 66.6163 -15.0756 259° West  Level Estimated
07:54AM 66.5923 -15.3721 259° West  Level Estimated
07:55AM 66.5678 -15.6680 258° West  Level Estimated
07:56AM 66.5428 -15.9634 258° West  Level Estimated
07:57AM 66.5172 -16.2581 258° West  Level Estimated
07:58AM 66.4910 -16.5522 258° West  Level Estimated
07:59AM 66.4643 -16.8457 257° West  Level Estimated
08:00AM 66.4370 -17.1385 257° West  Level Estimated
08:01AM 66.4092 -17.4307 257° West  Level Estimated
08:02AM 66.3809 -17.7223 256° West  Level Estimated
08:03AM 66.3520 -18.0132 256° West  Level Estimated
08:04AM 66.3225 -18.3034 256° West  Level Estimated
08:05AM 66.2926 -18.5929 256° West  Level Estimated
08:06AM 66.2621 -18.8818 255° West  Level Estimated
08:07AM 66.2310 -19.1699 255° West  Level Estimated
08:08AM 66.1994 -19.4573 255° West  Level Estimated
08:09AM 66.1673 -19.7440 255° West  Level Estimated
08:10AM 66.1347 -20.0299 254° West  Level Estimated
08:11AM 66.1015 -20.3151 254° West  Level Estimated
08:12AM 66.0678 -20.5996 254° West  Level Estimated
08:13AM 66.0336 -20.8833 254° West  Level Estimated
08:14AM 65.9989 -21.1662 253° West  Level Estimated
08:15AM 65.9636 -21.4484 253° West  Level Estimated
08:16AM 65.9278 -21.7298 253° West  Level Estimated
08:17AM 65.8916 -22.0104 253° West  Level Estimated
08:18AM 65.8548 -22.2902 252° West  Level Estimated
08:19AM 65.8175 -22.5691 252° West  Level Estimated
08:20AM 65.7797 -22.8473 252° West  Level Estimated
08:21AM 65.7413 -23.1247 252° West  Level Estimated
08:22AM 65.7025 -23.4012 251° West  Level Estimated
08:23AM 65.6632 -23.6769 251° West  Level Estimated
08:24AM 65.6234 -23.9517 251° West  Level Estimated
08:25AM 65.5831 -24.2257 251° West  Level Estimated
08:26AM 65.5423 -24.4989 250° West  Level Estimated
08:27AM 65.5011 -24.7712 250° West  Level Estimated
08:28AM 65.4593 -25.0426 250° West  Level Estimated
08:29AM 65.4170 -25.3132 250° West  Level Estimated
08:30AM 65.3743 -25.5828 249° West  Level Estimated
08:31AM 65.3311 -25.8516 249° West  Level Estimated
08:32AM 65.2874 -26.1195 249° West  Level Estimated
08:33AM 65.2432 -26.3866 249° West  Level Estimated
08:34AM 65.1986 -26.6527 248° West  Level Estimated
08:35AM 65.1535 -26.9179 248° West  Level Estimated
08:36AM 65.1079 -27.1822 248° West  Level Estimated
08:37AM 65.0619 -27.4456 248° West  Level Estimated
08:38AM 65.0154 -27.7081 247° West  Level Estimated
08:39AM 64.9684 -27.9697 247° West  Level Estimated
08:40AM 64.9210 -28.2304 247° West  Level Estimated
08:41AM 64.8731 -28.4901 247° West  Level Estimated
08:42AM 64.8248 -28.7489 246° West  Level Estimated
08:43AM 64.7760 -29.0068 246° West  Level Estimated
08:44AM 64.7268 -29.2637 246° West  Level Estimated
08:45AM 64.6771 -29.5197 246° West  Level Estimated
08:46AM 64.6271 -29.7748 245° Southwest  Level Estimated
08:47AM 64.5765 -30.0289 245° Southwest  Level Estimated
08:48AM 64.5256 -30.2821 245° Southwest  Level Estimated
08:49AM 64.4742 -30.5343 245° Southwest  Level Estimated
08:50AM 64.4223 -30.7856 245° Southwest  Level Estimated
08:51AM 64.3701 -31.0359 244° Southwest  Level Estimated
08:52AM 64.3174 -31.2853 244° Southwest  Level Estimated
08:53AM 64.2643 -31.5337 244° Southwest  Level Estimated
08:54AM 64.2107 -31.7812 244° Southwest  Level Estimated
08:55AM 64.1568 -32.0276 243° Southwest  Level Estimated
08:56AM 64.1024 -32.2732 243° Southwest  Level Estimated
08:57AM 64.0477 -32.5178 243° Southwest  Level Estimated
08:58AM 63.9925 -32.7614 243° Southwest  Level Estimated
08:59AM 63.9369 -33.0040 243° Southwest  Level Estimated
09:00AM 63.8809 -33.2457 242° Southwest  Level Estimated
09:01AM 63.8245 -33.4865 242° Southwest  Level Estimated
09:02AM 63.7677 -33.7262 242° Southwest  Level Estimated
09:03AM 63.7105 -33.9650 242° Southwest  Level Estimated
09:04AM 63.6530 -34.2028 241° Southwest  Level Estimated
09:05AM 63.5950 -34.4397 241° Southwest  Level Estimated
09:06AM 63.5366 -34.6756 241° Southwest  Level Estimated
09:07AM 63.4779 -34.9105 241° Southwest  Level Estimated
09:08AM 63.4187 -35.1445 241° Southwest  Level Estimated
09:09AM 63.3592 -35.3775 240° Southwest  Level Estimated
09:10AM 63.2993 -35.6095 240° Southwest  Level Estimated
09:11AM 63.2391 -35.8405 240° Southwest  Level Estimated
09:12AM 63.1784 -36.0706 240° Southwest  Level Estimated
09:13AM 63.1174 -36.2998 240° Southwest  Level Estimated
09:14AM 63.0561 -36.5280 239° Southwest  Level Estimated
09:15AM 62.9943 -36.7552 239° Southwest  Level Estimated
09:16AM 62.9322 -36.9814 239° Southwest  Level Estimated
09:17AM 62.8698 -37.2067 239° Southwest  Level Estimated
09:18AM 62.8069 -37.4310 239° Southwest  Level Estimated
09:19AM 62.7438 -37.6544 238° Southwest  Level Estimated
09:20AM 62.6802 -37.8768 238° Southwest  Level Estimated
09:21AM 62.6163 -38.0982 238° Southwest  Level Estimated
09:22AM 62.5521 -38.3187 238° Southwest  Level Estimated
09:23AM 62.4875 -38.5383 238° Southwest  Level Estimated
09:24AM 62.4226 -38.7569 237° Southwest  Level Estimated
09:25AM 62.3574 -38.9745 237° Southwest  Level Estimated
09:26AM 62.2918 -39.1912 237° Southwest  Level Estimated
09:27AM 62.2258 -39.4070 237° Southwest  Level Estimated
09:28AM 62.1596 -39.6218 237° Southwest  Level Estimated
09:29AM 62.0930 -39.8357 236° Southwest  Level Estimated
09:30AM 62.0260 -40.0486 236° Southwest  Level Estimated
09:31AM 61.9588 -40.2606 236° Southwest  Level Estimated
09:32AM 61.8912 -40.4717 236° Southwest  Level Estimated
09:33AM 61.8233 -40.6818 236° Southwest  Level Estimated
09:34AM 61.7551 -40.8910 235° Southwest  Level Estimated
09:35AM 61.6866 -41.0993 235° Southwest  Level Estimated
09:36AM 61.6177 -41.3066 235° Southwest  Level Estimated
09:37AM 61.5485 -41.5131 235° Southwest  Level Estimated
09:38AM 61.4791 -41.7186 235° Southwest  Level Estimated
09:39AM 61.4093 -41.9231 235° Southwest  Level Estimated
09:40AM 61.3392 -42.1268 234° Southwest  Level Estimated
09:41AM 61.2688 -42.3296 234° Southwest  Level Estimated
09:42AM 61.1981 -42.5314 234° Southwest  Level Estimated
09:43AM 61.1271 -42.7324 234° Southwest  Level Estimated
09:44AM 61.0559 -42.9324 234° Southwest  Level Estimated
09:45AM 60.9843 -43.1316 234° Southwest  Level Estimated
09:46AM 60.9124 -43.3298 233° Southwest  Level Estimated
09:47AM 60.8402 -43.5272 233° Southwest  Level Estimated
09:48AM 60.7678 -43.7237 233° Southwest  Level Estimated
09:49AM 60.6950 -43.9192 233° Southwest  Level Estimated
09:50AM 60.6220 -44.1139 233° Southwest  Level Estimated
09:51AM 60.5487 -44.3077 232° Southwest  Level Estimated
09:52AM 60.4752 -44.5007 232° Southwest  Level Estimated
09:53AM 60.4013 -44.6927 232° Southwest  Level Estimated
09:54AM 60.3272 -44.8839 232° Southwest  Level Estimated
09:55AM 60.2528 -45.0742 232° Southwest  Level Estimated
09:56AM 60.1781 -45.2637 232° Southwest  Level Estimated
09:57AM 60.1031 -45.4523 231° Southwest  Level Estimated
09:58AM 60.0279 -45.6400 231° Southwest  Level Estimated
09:59AM 59.9524 -45.8269 231° Southwest  Level Estimated
10:00AM 59.8767 -46.0129 231° Southwest  Level Estimated
10:00AM 62.4720 -48.6910 231° Southwest 440 506 33,000  Level FlightAware
10:00AM 62.4260 -48.8240 233° Southwest 440 506 33,000  Level FlightAware
10:01AM 59.8007 -46.1981 231° Southwest  Level Estimated
10:01AM 62.3660 -48.9910 232° Southwest 441 507 33,000  Level FlightAware
10:02AM 62.3180 -49.1260 233° Southwest 442 509 33,000  Level FlightAware
10:02AM 62.2930 -49.1970 233° Southwest 442 509 33,000  Level FlightAware
10:03AM 62.2370 -49.3520 232° Southwest 444 511 33,000  Level FlightAware
10:04AM 62.1580 -49.5710 232° Southwest 446 513 33,000  Level FlightAware
10:05AM 62.1050 -49.7160 232° Southwest 446 513 33,000  Level FlightAware
10:05AM 62.0660 -49.8230 232° Southwest 446 513 33,000  Level FlightAware
10:06AM 62.0140 -49.9640 232° Southwest 446 513 33,000  Level FlightAware
10:07AM 61.9460 -50.1670 235° Southwest 446 513 33,000  Level FlightAware
10:08AM 61.8980 -50.3150 235° Southwest 448 516 33,000  Level FlightAware
10:09AM 61.8110 -50.5840 236° Southwest 449 517 33,000  Level FlightAware
10:10AM 61.7700 -50.7060 235° Southwest 449 517 33,000  Level FlightAware
10:10AM 61.7250 -50.8430 235° Southwest 448 516 33,000  Level FlightAware
10:11AM 61.6840 -50.9630 234° Southwest 448 516 33,000  Level FlightAware
10:11AM 61.6590 -51.0350 234° Southwest 448 516 33,000  Level FlightAware
10:12AM 61.6130 -51.1670 234° Southwest 448 516 33,000  Level FlightAware
10:12AM 61.5760 -51.2750 234° Southwest 448 516 33,000  Level FlightAware
10:13AM 61.5260 -51.4190 234° Southwest 448 516 33,000  Level FlightAware
10:14AM 61.5010 -51.4910 234° Southwest 448 516 33,000  Level FlightAware
10:14AM 61.4120 -51.7670 236° Southwest 450 518 33,000  Level FlightAware
10:15AM 61.3860 -51.8410 234° Southwest 450 518 33,000  Level FlightAware
10:15AM 61.3490 -51.9490 234° Southwest 450 518 33,000  Level FlightAware
10:16AM 61.3110 -52.0560 234° Southwest 450 518 33,000  Level FlightAware
10:17AM 61.2740 -52.1640 235° Southwest 450 518 33,000  Level FlightAware
10:17AM 61.2060 -52.3530 233° Southwest 452 520 33,000  Level FlightAware
10:18AM 61.1670 -52.4630 234° Southwest 453 521 33,000  Level FlightAware
10:18AM 61.1300 -52.5630 233° Southwest 453 521 33,000  Level FlightAware
10:19AM 61.0920 -52.6690 233° Southwest 453 521 33,000  Level FlightAware
10:20AM 61.0400 -52.8100 233° Southwest 453 521 33,000  Level FlightAware
10:20AM 61.0010 -52.9190 234° Southwest 453 521 33,000  Level FlightAware
10:21AM 60.9630 -53.0220 233° Southwest 453 521 33,000  Level FlightAware
10:22AM 60.9100 -53.1650 233° Southwest 453 521 33,000  Level FlightAware
10:22AM 60.8740 -53.2640 233° Southwest 453 521 33,000  Level FlightAware
10:23AM 60.8330 -53.3750 233° Southwest 453 521 33,000  Level FlightAware
10:24AM 60.7820 -53.5150 233° Southwest 453 521 33,000  Level FlightAware
10:24AM 60.7430 -53.6200 233° Southwest 453 521 33,000  Level FlightAware
10:25AM 60.7050 -53.7250 234° Southwest 453 521 33,000  Level FlightAware
10:26AM 60.6660 -53.8300 233° Southwest 453 521 33,000  Level FlightAware
10:26AM 60.6140 -53.9690 233° Southwest 453 521 33,000  Level FlightAware
10:27AM 60.5890 -54.0380 234° Southwest 453 521 33,000  Level FlightAware
10:27AM 60.5630 -54.1080 233° Southwest 453 521 33,000  Level FlightAware
10:31AM 60.2552 -54.6331 220° Southwest  Level Estimated
10:32AM 60.1629 -54.7879 220° Southwest  Level Estimated
10:33AM 60.0704 -54.9419 220° Southwest  Level Estimated
10:34AM 59.9778 -55.0950 220° Southwest  Level Estimated
10:35AM 59.8821 -55.2519 219° Southwest  Level Estimated
10:36AM 59.7862 -55.4080 219° Southwest  Level Estimated
10:37AM 59.6901 -55.5632 219° Southwest  Level Estimated
10:37AM 59.7167 -56.1000 219° Southwest 360 414 33,000  Level Gander Center
10:38AM 59.5938 -55.7176 219° Southwest  Level Estimated
10:38AM 59.6667 -56.3000 244° Southwest 440 506 33,000  Level Gander Center
10:39AM 59.4974 -55.8710 219° Southwest  Level Estimated
10:39AM 59.5833 -56.4833 228° Southwest 440 506 33,000  Level Gander Center
10:40AM 59.4007 -56.0236 219° Southwest  Level Estimated
10:40AM 59.5000 -56.6833 231° Southwest 450 518 33,000  Level Gander Center
10:41AM 59.3039 -56.1753 219° Southwest  Level Estimated
10:41AM 59.4167 -56.8667 228° Southwest 450 518 33,000  Level Gander Center
10:42AM 59.2069 -56.3261 219° Southwest  Level Estimated
10:42AM 59.3333 -57.0333 226° Southwest 450 518 33,000  Level Gander Center
10:43AM 59.2500 -57.2167 228° Southwest 440 506 33,000  Level Gander Center
10:44AM 59.1833 -57.4167 237° Southwest 440 506 33,000  Level Gander Center
10:45AM 59.1000 -57.5833 226° Southwest 440 506 33,000  Level Gander Center
10:46AM 59.0000 -57.7500 221° Southwest 440 506 33,000  Level Gander Center
10:47AM 58.9500 -57.9500 244° Southwest 440 506 33,000 120 Level Gander Center
10:48AM 58.8500 -58.1333 224° Southwest 440 506 33,300 840 Climbing Gander Center
10:49AM 58.7833 -58.3000 232° Southwest 440 506 34,700 1,200 Climbing Gander Center
10:50AM 58.6833 -58.5000 226° Southwest 430 495 35,800 600 Climbing Gander Center
10:51AM 58.6167 -58.6667 233° Southwest 440 506 36,000 60 Climbing Gander Center
10:52AM 58.5333 -58.8167 223° Southwest 440 506 36,000  Level Gander Center
10:53AM 58.4500 -59.0167 232° Southwest 440 506 36,000  Level Gander Center
10:54AM 58.3667 -59.1833 226° Southwest 440 506 36,000  Level Gander Center
10:55AM 58.2833 -59.3500 226° Southwest 440 506 36,000 6,480 Level Gander Center
10:57AM 58.1333 -59.7000 231° Southwest 440 506 55,500  Climbing Gander Center
10:58AM 58.0167 -59.9000 222° Southwest 170 196 36,000 -5,880 Descending Gander Center
11:00AM 57.8000 -60.1167 208° Southwest 250 288 36,000  Level Gander Center
11:01AM 57.6833 -60.2167 205° Southwest 450 518 36,000  Level Gander Center
11:02AM 57.5667 -60.3500 212° Southwest 460 529 36,000  Level Gander Center
11:03AM 57.4500 -60.4500 205° Southwest 460 529 36,000  Level Gander Center
11:04AM 57.3333 -60.5667 208° Southwest 460 529 36,000  Level Gander Center
11:05AM 57.2333 -60.6667 208° Southwest 460 529 36,000  Level Gander Center
11:06AM 57.1167 -60.7667 205° Southwest 460 529 36,000  Level Gander Center
11:07AM 57.0000 -60.8833 209° Southwest 460 529 36,000  Level Gander Center
11:08AM 56.8833 -60.9833 205° Southwest 440 506 36,000  Level Gander Center
11:09AM 56.7667 -61.1000 209° Southwest 450 518 36,000  Level Gander Center
11:10AM 56.6500 -61.1833 201° Southwest 450 518 36,000  Level Gander Center
11:11AM 56.5333 -61.2833 205° Southwest 450 518 36,000  Level Gander Center
11:12AM 56.4333 -61.3667 205° Southwest 450 518 36,000  Level Gander Center
11:13AM 56.3167 -61.5000 212° Southwest 450 518 36,000  Level Gander Center
11:14AM 56.2000 -61.5833 202° Southwest 450 518 36,000  Level Gander Center
11:15AM 56.0833 -61.7000 209° Southwest 460 529 36,000  Level Gander Center
11:16AM 55.9667 -61.7833 202° Southwest 450 518 36,000  Level Gander Center
11:17AM 55.8667 -61.8833 209° Southwest 450 518 36,000  Level Gander Center
11:18AM 55.7500 -62.0000 209° Southwest 450 518 36,000  Level Gander Center
11:19AM 55.6333 -62.0833 202° Southwest 450 518 36,000  Level Gander Center
11:20AM 55.5167 -62.1667 202° Southwest 450 518 36,000  Level Gander Center
11:21AM 55.4000 -62.2500 202° Southwest 450 518 36,000  Level Gander Center
11:22AM 55.2833 -62.3667 210° Southwest 450 518 36,000  Level Gander Center
11:23AM 55.1833 -62.4500 205° Southwest 450 518 36,000  Level Gander Center
11:24AM 55.0667 -62.5333 202° Southwest 450 518 36,000  Level Gander Center
11:25AM 54.9500 -62.6500 210° Southwest 450 518 36,000  Level Gander Center
11:26AM 54.8167 -62.7333 200° South 450 518 36,000  Level Gander Center
11:27AM 54.7167 -62.8167 206° Southwest 450 518 36,000  Level Gander Center
11:28AM 54.6000 -62.9000 202° Southwest 450 518 36,000  Level Gander Center
11:29AM 54.4833 -63.0000 206° Southwest 450 518 36,000  Level Gander Center
11:30AM 54.3833 -63.0833 206° Southwest 450 518 36,000  Level Gander Center
11:31AM 54.2667 -63.1667 203° Southwest 450 518 36,000  Level Gander Center
11:32AM 54.1500 -63.2833 210° Southwest 450 518 36,000  Level Gander Center
11:33AM 54.0333 -63.3667 203° Southwest 450 518 36,000  Level Gander Center
11:34AM 53.9333 -63.4333 201° Southwest 460 529 36,000  Level Gander Center
11:35AM 53.8000 -63.5500 207° Southwest 450 518 36,000  Level Gander Center
11:36AM 53.6833 -63.6333 203° Southwest 460 529 36,000  Level Gander Center
11:37AM 53.5667 -63.7000 199° South 450 518 36,000  Level Gander Center
11:38AM 53.4500 -63.8167 211° Southwest 450 518 36,000  Level Gander Center
11:39AM 53.3500 -63.8833 202° Southwest 450 518 36,000  Level Gander Center
11:40AM 53.2333 -63.9667 203° Southwest 450 518 36,000  Level Gander Center
11:41AM 53.1167 -64.0667 207° Southwest 450 518 36,000  Level Gander Center
11:42AM 53.0000 -64.1500 203° Southwest 460 529 36,000  Level Gander Center
11:43AM 52.8833 -64.2167 199° South 450 518 36,000  Level Gander Center
11:45AM 52.6500 -64.4000 205° Southwest 460 529 36,000  Level Gander Center
11:46AM 52.5333 -64.4667 199° South 460 529 36,000  Level Gander Center
11:47AM 52.4167 -64.5667 208° Southwest 450 518 36,000  Level Gander Center
11:48AM 52.3000 -64.6500 204° Southwest 460 529 36,000  Level Gander Center
11:49AM 52.2000 -64.7167 202° Southwest 460 529 36,000  Level Gander Center
11:50AM 52.0500 -64.8167 202° Southwest 460 529 36,000  Level Gander Center
11:51AM 51.9500 -64.8833 202° Southwest 460 529 36,000  Level Gander Center
11:52AM 51.7833 -65.0167 206° Southwest 460 529 36,000  Level Moncton Center
11:53AM 51.6500 -65.1000 201° Southwest 460 529 36,000  Level Moncton Center
11:54AM 51.5500 -65.1833 207° Southwest 460 529 36,000  Level Moncton Center
11:55AM 51.4333 -65.2500 200° South 460 529 36,000  Level Moncton Center
11:56AM 51.3000 -65.3333 201° Southwest 460 529 36,000  Level Moncton Center
11:57AM 51.2000 -65.4167 208° Southwest 460 529 36,000  Level Moncton Center
11:59AM 51.0000 -65.5333 200° South 460 529 36,000  Level Gander Center
12:00PM 50.8833 -65.6000 200° South 460 529 36,000  Level Gander Center
12:01PM 50.7500 -65.7000 205° Southwest 460 529 36,000  Level Gander Center
12:02PM 50.6333 -65.7667 200° South 460 529 36,000  Level Gander Center
12:03PM 50.5333 -65.8333 203° Southwest 460 529 36,000  Level Gander Center
12:04PM 50.4167 -65.9333 209° Southwest 460 529 36,000  Level Gander Center
12:05PM 50.2833 -66.0000 198° South 460 529 36,000  Level Gander Center
12:10PM 49.6920 -66.3840 198° South 468 539 36,000  Level FlightAware
12:10PM 49.6510 -66.4090 202° Southwest 468 539 36,000  Level FlightAware
12:12PM 49.4940 -66.5070 202° Southwest 471 542 36,000  Level FlightAware
12:12PM 49.4170 -66.5550 202° Southwest 471 542 36,000  Level FlightAware
12:13PM 49.3500 -66.5960 202° Southwest 472 543 36,000  Level FlightAware
12:14PM 49.2330 -66.6670 202° Southwest 469 540 36,000  Level FlightAware
12:15PM 49.1420 -66.7220 202° Southwest 468 539 36,000  Level FlightAware
12:15PM 49.0680 -66.7680 202° Southwest 464 534 36,000  Level FlightAware
12:16PM 48.9750 -66.8240 202° Southwest 464 534 36,000  Level FlightAware
12:16PM 48.9100 -66.8630 202° Southwest 463 533 36,000  Level FlightAware
12:17PM 48.8390 -66.9060 202° Southwest 462 532 36,000  Level FlightAware
12:18PM 48.7840 -66.9390 202° Southwest 463 533 36,000  Level FlightAware
12:18PM 48.7050 -66.9870 202° Southwest 464 534 36,000  Level FlightAware
12:19PM 48.5830 -67.0590 201° Southwest 462 532 36,000  Level FlightAware
12:20PM 48.5070 -67.1040 201° Southwest 460 529 36,000  Level FlightAware
12:20PM 48.4430 -67.1420 202° Southwest 459 528 36,000  Level FlightAware
12:21PM 48.3480 -67.1980 201° Southwest 460 529 36,000  Level FlightAware
12:22PM 48.2920 -67.2310 201° Southwest 459 528 36,000  Level FlightAware
12:22PM 48.2180 -67.2740 201° Southwest 458 527 36,000  Level FlightAware
12:23PM 48.1540 -67.3120 202° Southwest 457 526 36,000  Level FlightAware
12:23PM 48.0910 -67.3490 201° Southwest 455 524 36,000  Level FlightAware
12:24PM 48.0230 -67.3880 201° Southwest 453 521 36,000  Level FlightAware
12:24PM 47.9610 -67.4240 201° Southwest 453 521 36,000  Level FlightAware
12:25PM 47.8700 -67.4760 201° Southwest 454 522 36,000  Level FlightAware
12:26PM 47.7330 -67.5550 201° Southwest 456 525 36,000  Level FlightAware
12:27PM 47.6620 -67.5960 201° Southwest 460 529 36,000  Level FlightAware
12:27PM 47.7970 -67.5187 21° North 458 527 36,000  Level FlightAware ADS-B (CYSG)
12:28PM 47.5320 -67.6700 201° Southwest 465 535 36,000  Level FlightAware
12:29PM 47.4730 -67.7040 201° Southwest 467 537 36,000  Level FlightAware
12:29PM 47.4260 -67.7310 201° Southwest 464 534 36,000  Level FlightAware
12:30PM 47.3130 -67.7940 201° Southwest 469 540 36,000  Level FlightAware
12:30PM 47.2470 -67.8310 201° Southwest 467 537 36,000  Level FlightAware
12:31PM 47.1670 -67.8760 201° Southwest 468 539 36,000  Level FlightAware
12:32PM 47.0860 -67.9220 201° Southwest 466 536 36,000  Level FlightAware
12:32PM 47.0340 -67.9510 201° Southwest 466 536 36,000  Level FlightAware
12:33PM 46.9550 -67.9940 200° South 465 535 36,000  Level FlightAware
12:33PM 46.9060 -68.0220 201° Southwest 464 534 36,000  Level FlightAware
12:34PM 46.8530 -68.0510 201° Southwest 462 532 36,000  Level FlightAware
12:34PM 46.7560 -68.1020 200° South 468 539 36,000  Level FlightAware
12:35PM 46.6524 -68.1448 196° South 470 541 36,000  Level FlightAware ADS-B (CYSG)
12:36PM 46.5844 -68.1737 196° South 471 542 36,000  Level FlightAware ADS-B (CYSG)
12:37PM 46.4646 -68.2236 196° South 472 543 36,000  Level FlightAware ADS-B (CYSG)
12:37PM 46.3877 -68.2552 196° South 472 543 36,000  Level FlightAware ADS-B (CYSG)
12:38PM 46.2829 -68.2983 196° South 468 539 36,000  Level FlightAware ADS-B (CYSG)
12:39PM 46.2156 -68.3259 196° South 467 537 36,000  Level FlightAware ADS-B (CYSG)
12:39PM 46.1516 -68.3520 196° South 466 536 36,000  Level FlightAware ADS-B (CYSG)
12:40PM 46.0708 -68.3849 196° South 465 535 36,000  Level FlightAware ADS-B (CYSG)
12:40PM 46.0134 -68.4082 196° South 467 537 36,000  Level FlightAware ADS-B (CYSG)
12:41PM 45.9444 -68.4363 196° South 468 539 36,000  Level FlightAware ADS-B (CYSG)
12:41PM 45.8813 -68.4619 196° South 469 540 36,000  Level FlightAware ADS-B (CYSG)
12:42PM 45.8111 -68.4902 196° South 470 541 36,000  Level FlightAware ADS-B (CYSG)
12:43PM 45.7310 -68.5225 196° South 470 541 36,000  Level FlightAware ADS-B (CYSG)
12:43PM 45.6488 -68.5554 196° South 471 542 36,000  Level FlightAware ADS-B (CYSG)
12:44PM 45.5876 -68.5800 196° South 471 542 36,000  Level FlightAware ADS-B (KBGR)
12:44PM 45.5211 -68.6065 196° South 471 542 36,000  Level FlightAware ADS-B (KBGR)
12:45PM 45.4409 -68.6383 196° South 468 539 36,000  Level FlightAware ADS-B (CYSG)
12:46PM 45.3602 -68.6704 196° South 466 536 36,000  Level FlightAware ADS-B (KBGR)
12:46PM 45.2584 -68.7107 196° South 467 537 36,000  Level FlightAware ADS-B (CYQI)
12:47PM 45.2033 -68.7325 196° South 468 539 36,000  Level FlightAware ADS-B (CYSG)
12:47PM 45.1526 -68.7525 196° South 469 540 36,000  Level FlightAware ADS-B (CYSG)
12:48PM 45.0657 -68.7867 196° South 469 540 36,000  Level FlightAware ADS-B (KBGR)
12:49PM 45.0011 -68.8120 195° South 470 541 36,000  Level FlightAware ADS-B (KBGR)
12:49PM 44.9372 -68.8369 195° South 470 541 36,000  Level FlightAware ADS-B (CYSG)
12:50PM 44.8660 -68.8655 196° South 466 536 36,000  Level FlightAware ADS-B (KBGR)
12:50PM 44.7969 -68.9030 201° Southwest 455 524 36,000  Level FlightAware ADS-B (KBGR)
12:50PM 44.7566 -68.9306 206° Southwest 453 521 36,000  Level FlightAware ADS-B (CYQI)
12:51PM 44.7155 -68.9595 207° Southwest 453 521 36,000  Level FlightAware ADS-B (CYSG)
12:52PM 44.6453 -69.0082 206° Southwest 455 524 36,000  Level FlightAware ADS-B (KBGR)
12:52PM 44.5871 -69.0479 206° Southwest 458 527 36,000  Level FlightAware ADS-B (KBGR)
12:53PM 44.5146 -69.0970 206° Southwest 459 528 36,000  Level FlightAware ADS-B (CYQI)
12:53PM 44.4571 -69.1360 206° Southwest 461 531 36,000  Level FlightAware ADS-B (CYQI)
12:54PM 44.4010 -69.1738 206° Southwest 463 533 36,000  Level FlightAware ADS-B (KBGR)
12:54PM 44.3486 -69.2089 206° Southwest 464 534 36,000  Level FlightAware ADS-B (KBGR)
12:55PM 44.2794 -69.2554 206° Southwest 464 534 36,000  Level FlightAware ADS-B (KBGR)
12:55PM 44.2118 -69.3007 206° Southwest 464 534 36,000  Level FlightAware ADS-B (KBGR)
12:56PM 44.1332 -69.3534 206° Southwest 464 534 36,000  Level FlightAware ADS-B (KBGR)
12:56PM 44.0736 -69.3930 206° Southwest 462 532 36,000  Level FlightAware ADS-B
12:57PM 44.0089 -69.4361 206° Southwest 461 531 36,000  Level FlightAware ADS-B
12:58PM 43.9335 -69.4860 205° Southwest 461 531 36,000  Level FlightAware ADS-B
12:58PM 43.8545 -69.5382 205° Southwest 458 527 36,000  Level FlightAware ADS-B (CYQI)
12:58PM 43.8553 -69.5376 27° Northeast 450 518 36,000  Level FlightAware ADS-B
12:59PM 43.8346 -69.5512 205° Southwest 456 525 36,000  Level FlightAware ADS-B (CYQI)
12:59PM 43.7586 -69.6015 206° Southwest 454 522 36,000  Level FlightAware ADS-B (CYQI)
01:00PM 43.7047 -69.6369 205° Southwest 446 513 36,000  Level FlightAware ADS-B
01:00PM 43.6471 -69.6746 205° Southwest 453 521 36,000  Level FlightAware ADS-B (CYQI)
01:01PM 43.6014 -69.7045 205° Southwest 454 522 36,000  Level FlightAware ADS-B (KBOS)
01:01PM 43.5321 -69.7498 205° Southwest 456 525 36,000  Level FlightAware ADS-B (KBOS)
01:02PM 43.4816 -69.7826 205° Southwest 459 528 36,000  Level FlightAware ADS-B (KBOS)
01:02PM 43.4076 -69.8184 199° South 470 541 36,000  Level FlightAware ADS-B (KBOS)
01:03PM 43.3522 -69.8370 194° South 477 549 36,000  Level FlightAware ADS-B (KBOS)
01:03PM 43.2716 -69.8531 188° South 483 556 36,000  Level FlightAware ADS-B (KBOS)
01:04PM 43.2350 -69.8591 187° South 479 551 36,000  Level FlightAware ADS-B (CYQI)
01:04PM 43.2144 -69.8629 188° South 478 550 36,000  Level FlightAware ADS-B
01:04PM 43.1357 -69.8765 187° South 479 551 36,000  Level FlightAware ADS-B (KBOS)
01:05PM 43.0690 -69.8867 186° South 479 551 36,000  Level FlightAware ADS-B (KBOS)
01:05PM 42.9981 -69.8970 186° South 471 542 36,000  Level FlightAware ADS-B
01:06PM 42.9307 -69.9067 186° South 470 541 36,000  Level FlightAware ADS-B
01:06PM 42.8655 -69.9162 186° South 470 541 36,000  Level FlightAware ADS-B
01:07PM 42.8013 -69.9254 186° South 479 551 36,000  Level FlightAware ADS-B (KBOS)
01:07PM 42.7321 -69.9354 186° South 479 551 36,000  Level FlightAware ADS-B (KBOS)
01:08PM 42.6497 -69.9473 186° South 471 542 36,000  Level FlightAware ADS-B
01:09PM 42.5912 -69.9556 186° South 480 552 36,000  Level FlightAware ADS-B (KBOS)
01:09PM 42.4964 -69.9693 186° South 480 552 36,000  Level FlightAware ADS-B (KBOS)
01:10PM 42.4267 -69.9792 186° South 473 544 36,000  Level FlightAware ADS-B
01:10PM 42.3593 -69.9889 186° South 473 544 36,000  Level FlightAware ADS-B
01:11PM 42.2924 -69.9983 186° South 473 544 36,000  Level FlightAware ADS-B
01:11PM 42.2401 -70.0060 186° South 470 541 36,000  Level FlightAware ADS-B
01:12PM 42.1693 -70.0237 191° South 471 542 36,000  Level FlightAware ADS-B (KBOS)
01:12PM 42.1358 -70.0363 196° South 466 536 36,000  Level FlightAware ADS-B (KOWD)
01:13PM 42.0690 -70.0700 201° Southwest 457 526 36,000  Level FlightAware ADS-B
01:13PM 42.0258 -70.0981 206° Southwest 453 521 36,000  Level FlightAware ADS-B
01:13PM 41.9726 -70.1408 211° Southwest 447 514 36,000  Level FlightAware ADS-B (KBOS)
01:14PM 41.9145 -70.1997 217° Southwest 439 505 36,000  Level FlightAware ADS-B (KOWD)
01:14PM 41.8821 -70.2394 222° Southwest 429 494 36,000  Level FlightAware ADS-B
01:14PM 41.8760 -70.2475 225° Southwest 433 498 36,000  Level FlightAware ADS-B
01:15PM 41.8305 -70.3131 227° Southwest 432 497 36,000  Level FlightAware ADS-B (KBOS)
01:15PM 41.7881 -70.3741 227° Southwest 434 499 36,000  Level FlightAware ADS-B (KBOS)
01:16PM 41.7753 -70.3926 227° Southwest 436 502 36,000  Level FlightAware ADS-B (KOWD)
01:17PM 41.6928 -70.5121 227° Southwest 437 503 36,000  Level FlightAware ADS-B (KOWD)
01:17PM 41.6809 -70.5295 227° Southwest 432 497 36,000  Level FlightAware ADS-B
01:17PM 41.6659 -70.5510 227° Southwest 437 503 36,000  Level FlightAware ADS-B (KOWD)
01:18PM 41.5936 -70.6557 227° Southwest 436 502 36,000  Level FlightAware ADS-B (EDDS / STR)
01:18PM 41.5506 -70.7178 227° Southwest 435 501 36,000  Level FlightAware ADS-B (EDDS / STR)
01:18PM 41.5439 -70.7275 227° Southwest 429 494 36,000  Level FlightAware ADS-B
01:19PM 41.5108 -70.7750 227° Southwest 428 493 36,000  Level FlightAware ADS-B
01:19PM 41.4982 -70.7930 227° Southwest 428 493 36,000  Level FlightAware ADS-B
01:20PM 41.4540 -70.8566 227° Southwest 435 501 36,000  Level FlightAware ADS-B (EDDS / STR)
01:20PM 41.4462 -70.8678 227° Southwest 430 495 36,000  Level FlightAware ADS-B
01:20PM 41.4371 -70.8808 227° Southwest 435 501 36,000  Level FlightAware ADS-B (EDDS / STR)
01:20PM 41.3913 -70.9463 227° Southwest 436 502 36,000  Level FlightAware ADS-B
01:21PM 41.3573 -70.9949 227° Southwest 436 502 36,000  Level FlightAware ADS-B
01:21PM 41.3037 -71.0727 228° Southwest 428 493 36,000  Level FlightAware ADS-B
01:22PM 41.2946 -71.0876 231° Southwest 429 494 36,000  Level FlightAware ADS-B
01:22PM 41.2518 -71.1719 236° Southwest 422 486 36,000  Level FlightAware ADS-B (EDDS / STR)
01:22PM 41.2399 -71.2013 242° Southwest 414 476 36,000  Level FlightAware ADS-B
01:23PM 41.2228 -71.2518 246° West 414 476 36,000  Level FlightAware ADS-B
01:23PM 41.2025 -71.3252 250° West 413 475 36,000  Level FlightAware ADS-B (EDDS / STR)
01:24PM 41.1822 -71.3975 250° West 414 476 36,000  Level FlightAware ADS-B
01:24PM 41.1648 -71.4594 250° West 414 476 36,000  Level FlightAware ADS-B (EDDS / STR)
01:25PM 41.1417 -71.5410 249° West 414 476 36,000  Level FlightAware ADS-B (EDDS / STR)
01:25PM 41.1197 -71.6182 249° West 413 475 36,000  Level FlightAware ADS-B
01:25PM 41.1123 -71.6378 244° Southwest 420 483 36,000  Level FlightAware ADS-B (EDDS / STR)
01:26PM 41.0797 -71.6945 233° Southwest 433 498 36,000  Level FlightAware ADS-B (KSNC)
01:26PM 41.0484 -71.7451 231° Southwest 432 497 36,000  Level FlightAware ADS-B (EDDS / STR)
01:27PM 41.0054 -71.8151 231° Southwest 428 493 36,000  Level FlightAware ADS-B (EDDS / STR)
01:27PM 40.9692 -71.8737 231° Southwest 426 490 36,000  Level FlightAware ADS-B (EDDS / STR)
01:28PM 40.9217 -71.9504 231° Southwest 424 488 36,000  Level FlightAware ADS-B
01:29PM 40.8768 -72.0228 231° Southwest 424 488 36,000  Level FlightAware ADS-B (KSNC)
01:29PM 40.8585 -72.0522 231° Southwest 424 488 36,000  Level FlightAware ADS-B
01:30PM 40.7891 -72.1635 231° Southwest 426 490 36,000  Level FlightAware ADS-B (KSNC)
01:30PM 40.7572 -72.2145 231° Southwest 426 490 36,000  Level FlightAware ADS-B (KSNC)
01:31PM 40.7088 -72.2922 231° Southwest 427 491 36,000  Level FlightAware ADS-B (KSNC)
01:32PM 40.6566 -72.3756 231° Southwest 428 493 36,000  Level FlightAware ADS-B (KSNC)
01:32PM 40.6057 -72.4569 230° Southwest 428 493 36,000  Level FlightAware ADS-B (KSNC)
01:33PM 40.5653 -72.5209 230° Southwest 428 493 36,000  Level FlightAware ADS-B (KSNC)
01:33PM 40.5286 -72.5792 230° Southwest 427 491 36,000  Level FlightAware ADS-B (KSNC)
01:34PM 40.4879 -72.6433 230° Southwest 427 491 36,000  Level FlightAware ADS-B (KSNC)
01:34PM 40.4391 -72.7205 230° Southwest 426 490 36,000  Level FlightAware ADS-B (KSNC)
01:35PM 40.3996 -72.7831 230° Southwest 426 490 36,000  Level FlightAware ADS-B (KSNC)
01:35PM 40.3623 -72.8419 230° Southwest 426 490 36,000  Level FlightAware ADS-B (KSNC)
01:36PM 40.3125 -72.9199 230° Southwest 425 489 36,000  Level FlightAware ADS-B (KSNC)
01:37PM 40.2740 -72.9799 230° Southwest 424 488 36,000  Level FlightAware ADS-B (KSNC)
01:37PM 40.2283 -73.0513 230° Southwest 422 486 36,000  Level FlightAware ADS-B (KSNC)
01:38PM 40.1739 -73.1362 230° Southwest 422 486 36,000  Level FlightAware ADS-B (KSNC)
01:39PM 40.0947 -73.2566 229° Southwest 428 493 36,000  Level FlightAware ADS-B (KSNC)
01:40PM 40.0178 -73.3447 221° Southwest 432 497 36,000  Level FlightAware ADS-B (KSNC)
01:40PM 39.9630 -73.4080 222° Southwest 430 495 36,000  Level FlightAware
01:41PM 39.9343 -73.4398 220° Southwest 431 496 36,000  Level FlightAware ADS-B (KSNC)
01:41PM 39.8776 -73.5033 221° Southwest 428 493 36,000  Level FlightAware ADS-B (KSNC)
01:42PM 39.7950 -73.5960 221° Southwest 427 491 36,000  Level FlightAware
01:43PM 39.7709 -73.6220 220° Southwest 428 493 36,000  Level FlightAware ADS-B (KSNC)
01:43PM 39.7180 -73.6807 220° Southwest 428 493 36,000  Level FlightAware ADS-B (KSNC)
01:44PM 39.6411 -73.7657 220° Southwest 427 491 36,000  Level FlightAware ADS-B (KSNC)
01:45PM 39.5840 -73.8290 221° Southwest 427 491 36,000  Level FlightAware
01:45PM 39.5476 -73.8688 220° Southwest 427 491 36,000  Level FlightAware ADS-B (KWWD)
01:46PM 39.4984 -73.9229 220° Southwest 423 487 36,000  Level FlightAware ADS-B (KWWD)
01:46PM 39.4523 -73.9737 220° Southwest 425 489 36,000  Level FlightAware ADS-B (KWWD)
01:47PM 39.4079 -74.0223 220° Southwest 425 489 36,000  Level FlightAware ADS-B (KWWD)
01:47PM 39.3605 -74.0740 220° Southwest 425 489 36,000  Level FlightAware ADS-B (KWWD)
01:48PM 39.3146 -74.1242 220° Southwest 424 488 36,000  Level FlightAware ADS-B (KWWD)
01:48PM 39.2548 -74.1894 220° Southwest 423 487 36,000  Level FlightAware ADS-B (KWWD)
01:49PM 39.1979 -74.2512 220° Southwest 422 486 36,000  Level FlightAware ADS-B (KWWD)
01:49PM 39.1479 -74.3055 220° Southwest 422 486 36,000  Level FlightAware ADS-B (KWWD)
01:50PM 39.1031 -74.3540 220° Southwest 423 487 36,000  Level FlightAware ADS-B (KWWD)
01:51PM 39.0447 -74.4171 220° Southwest 424 488 36,000  Level FlightAware ADS-B (KWWD)
01:51PM 38.9978 -74.4677 220° Southwest 426 490 36,000  Level FlightAware ADS-B (KWWD)
01:52PM 38.9366 -74.5335 220° Southwest 428 493 36,000  Level FlightAware ADS-B (KWWD)
01:52PM 38.8881 -74.5856 220° Southwest 428 493 36,000  Level FlightAware ADS-B (KWWD)
01:53PM 38.8400 -74.6370 220° Southwest 433 498 36,000  Level FlightAware
01:53PM 38.8003 -74.6795 220° Southwest 428 493 36,000  Level FlightAware ADS-B (KWWD)
01:54PM 38.7465 -74.7369 220° Southwest 434 499 36,000  Level FlightAware ADS-B (KSBY)
01:54PM 38.7415 -74.7422 220° Southwest 428 493 36,000  Level FlightAware ADS-B (KWWD)
01:55PM 38.6612 -74.8278 220° Southwest 427 491 36,000  Level FlightAware ADS-B (KWWD)
01:55PM 38.5991 -74.8938 220° Southwest 426 490 36,000  Level FlightAware ADS-B (KWWD)
01:56PM 38.5371 -74.9596 220° Southwest 426 490 36,000  Level FlightAware ADS-B (KWWD)
01:57PM 38.4916 -75.0078 220° Southwest 427 491 36,000  Level FlightAware ADS-B (KWWD)
01:57PM 38.4452 -75.0569 220° Southwest 427 491 36,000  Level FlightAware ADS-B (KWWD)
01:58PM 38.3872 -75.1179 220° Southwest 426 490 36,000  Level FlightAware ADS-B (KWWD)
01:58PM 38.3384 -75.1692 219° Southwest 426 490 36,000  Level FlightAware ADS-B (KWWD)
01:59PM 38.2905 -75.2195 220° Southwest 424 488 36,000  Level FlightAware ADS-B (KWWD)
01:59PM 38.2467 -75.2656 220° Southwest 430 495 36,000  Level FlightAware ADS-B (KSBY)
02:00PM 38.1907 -75.3242 219° Southwest 429 494 36,000  Level FlightAware ADS-B (KSBY)
02:00PM 38.1382 -75.3791 219° Southwest 428 493 36,000  Level FlightAware ADS-B (KSBY)
02:01PM 38.0931 -75.4260 219° Southwest 422 486 36,000  Level FlightAware ADS-B (KWWD)
02:01PM 38.0476 -75.4693 217° Southwest 428 493 36,000  Level FlightAware ADS-B (KWWD)
02:02PM 37.9912 -75.5118 211° Southwest 431 496 36,000  Level FlightAware ADS-B (KWWD)
02:02PM 37.9390 -75.5522 211° Southwest 436 502 36,000  Level FlightAware ADS-B (KWWD)
02:03PM 37.8836 -75.5950 211° Southwest 437 503 36,000  Level FlightAware ADS-B (KSBY)
02:04PM 37.8235 -75.6406 211° Southwest 436 502 36,000  Level FlightAware ADS-B (KSBY)
02:04PM 37.7511 -75.6950 211° Southwest 435 501 36,000  Level FlightAware ADS-B (KWWD)
02:05PM 37.6991 -75.7342 211° Southwest 435 501 36,000  Level FlightAware ADS-B (KWWD)
02:05PM 37.6471 -75.7732 211° Southwest 435 501 36,000  Level FlightAware ADS-B (KWWD)
02:06PM 37.5940 -75.8130 211° Southwest 435 501 36,000  Level FlightAware ADS-B (KWWD)
02:06PM 37.5407 -75.8519 210° Southwest 440 506 36,000  Level FlightAware ADS-B (KWWD)
02:07PM 37.4642 -75.8940 204° Southwest 441 507 36,000  Level FlightAware ADS-B (KWWD)
02:08PM 37.3857 -75.9371 204° Southwest 441 507 36,000  Level FlightAware ADS-B (KWWD)
02:08PM 37.3090 -75.9786 203° Southwest 442 509 36,000  Level FlightAware ADS-B (KWWD)
02:09PM 37.2488 -76.0108 203° Southwest 441 507 36,000  Level FlightAware ADS-B (KWWD)
02:09PM 37.1823 -76.0462 203° Southwest 440 506 36,000  Level FlightAware ADS-B (KWWD)
02:10PM 37.1197 -76.0796 203° Southwest 440 506 36,000  Level FlightAware ADS-B (KWWD)
02:11PM 37.0432 -76.1229 204° Southwest 436 502 36,000  Level FlightAware ADS-B (KWWD)
02:11PM 36.9747 -76.1702 209° Southwest 442 509 36,000  Level FlightAware ADS-B (KWWD)
02:12PM 36.9004 -76.2200 208° Southwest 443 510 36,000  Level FlightAware ADS-B (KWWD)
02:13PM 36.8275 -76.2688 208° Southwest 437 503 36,000  Level FlightAware ADS-B (KWWD)
02:13PM 36.7481 -76.3224 208° Southwest 444 511 36,000  Level FlightAware ADS-B (KWWD)
02:14PM 36.6910 -76.3610 208° Southwest 445 512 36,000  Level FlightAware
02:14PM 36.6315 -76.4004 208° Southwest 437 503 36,000  Level FlightAware ADS-B (KWWD)
02:16PM 36.5180 -76.4760 208° Southwest 436 502 36,000  Level FlightAware
02:16PM 36.4921 -76.4933 208° Southwest 443 510 36,000  Level FlightAware ADS-B (KWWD)
02:16PM 36.4170 -76.5430 208° Southwest 436 502 36,000  Level FlightAware
02:17PM 36.3850 -76.5644 208° Southwest 437 503 36,000  Level FlightAware ADS-B (KWWD)
02:18PM 36.3000 -76.6210 208° Southwest 437 503 36,000  Level FlightAware
02:18PM 36.2450 -76.6570 208° Southwest 437 503 36,000  Level FlightAware
02:19PM 36.1260 -76.7350 208° Southwest 436 502 36,000  Level FlightAware
02:20PM 36.0100 -76.8120 208° Southwest 437 503 36,000  Level FlightAware
02:21PM 35.9640 -76.8420 208° Southwest 437 503 36,000  Level FlightAware
02:21PM 35.8850 -76.8940 208° Southwest 438 504 36,000  Level FlightAware
02:22PM 35.7960 -76.9520 208° Southwest 438 504 36,000  Level FlightAware
02:23PM 35.6730 -77.0320 208° Southwest 438 504 36,000  Level FlightAware
02:24PM 35.6370 -77.0560 208° Southwest 438 504 36,000  Level FlightAware
02:25PM 35.5650 -77.1030 208° Southwest 438 504 36,000  Level FlightAware
02:25PM 35.5100 -77.1380 207° Southwest 438 504 36,000  Level FlightAware
02:26PM 35.4860 -77.1530 207° Southwest 446 513 36,000  Level FlightAware
02:27PM 35.4050 -77.2050 208° Southwest 446 513 36,000  Level FlightAware
02:27PM 35.3440 -77.2450 208° Southwest 446 513 36,000  Level FlightAware
02:28PM 35.1973 -77.3388 208° Southwest 446 513 36,000  Level FlightAware ADS-B
02:28PM 35.1241 -77.3856 208° Southwest 445 512 36,000  Level FlightAware ADS-B
02:29PM 35.0677 -77.4216 208° Southwest 445 512 36,000  Level FlightAware ADS-B
02:29PM 35.0136 -77.4561 208° Southwest 445 512 36,000  Level FlightAware ADS-B
02:30PM 34.9599 -77.4904 208° Southwest 445 512 36,000  Level FlightAware ADS-B
02:30PM 34.9065 -77.5243 208° Southwest 445 512 36,000  Level FlightAware ADS-B
02:31PM 34.8498 -77.5604 208° Southwest 445 512 36,000  Level FlightAware ADS-B
02:31PM 34.7958 -77.5947 208° Southwest 445 512 36,000  Level FlightAware ADS-B
02:32PM 34.7425 -77.6284 207° Southwest 445 512 36,000  Level FlightAware ADS-B
02:32PM 34.6848 -77.6649 207° Southwest 445 512 36,000  Level FlightAware ADS-B
02:33PM 34.6294 -77.6998 207° Southwest 446 513 36,000  Level FlightAware ADS-B
02:33PM 34.5770 -77.7328 207° Southwest 446 513 36,000  Level FlightAware ADS-B
02:34PM 34.5242 -77.7662 207° Southwest 446 513 36,000  Level FlightAware ADS-B
02:35PM 34.5140 -77.7730 209° Southwest 446 513 36,000  Level FlightAware
02:35PM 34.5120 -77.7740 202° Southwest 448 516 36,000  Level FlightAware
02:36PM 34.3770 -77.8560 207° Southwest 450 518 36,000  Level FlightAware
02:36PM 34.3320 -77.8760 200° South 454 522 36,000  Level FlightAware
02:37PM 34.1494 -77.9330 194° South 457 526 36,000  Level FlightAware ADS-B
02:37PM 34.1780 -77.9240 15° North 457 526 36,000  Level FlightAware
02:38PM 34.1110 -77.9440 194° South 455 524 36,000  Level FlightAware
02:39PM 33.9500 -77.9910 194° South 456 525 36,000  Level FlightAware
02:40PM 33.7440 -78.0500 193° South 455 524 36,000  Level FlightAware
02:41PM 33.6740 -78.0710 194° South 453 521 36,000  Level FlightAware
02:42PM 33.6140 -78.0880 193° South 454 522 36,000  Level FlightAware
02:43PM 33.5110 -78.1170 193° South 452 520 36,000  Level FlightAware
02:43PM 33.4420 -78.1370 194° South 451 519 36,000  Level FlightAware
02:44PM 33.3640 -78.1590 193° South 451 519 36,000  Level FlightAware
02:44PM 33.2990 -78.1780 194° South 450 518 36,000  Level FlightAware
02:45PM 33.2390 -78.1950 193° South 451 519 36,000  Level FlightAware
02:46PM 33.1720 -78.2140 193° South 453 521 36,000  Level FlightAware
02:46PM 33.1000 -78.2340 193° South 454 522 36,000  Level FlightAware
02:47PM 32.9760 -78.2690 193° South 455 524 36,000  Level FlightAware
02:48PM 32.9020 -78.2900 193° South 456 525 36,000  Level FlightAware
02:48PM 32.8600 -78.3020 193° South 456 525 36,000  Level FlightAware
02:49PM 32.7340 -78.3370 193° South 454 522 36,000  Level FlightAware
02:50PM 32.5730 -78.3820 193° South 453 521 36,000  Level FlightAware
02:50PM 32.5030 -78.4020 194° South 454 522 36,000  Level FlightAware
02:51PM 32.4200 -78.4250 193° South 455 524 36,000  Level FlightAware
02:52PM 32.3570 -78.4440 194° South 456 525 36,000  Level FlightAware
02:53PM 32.2600 -78.4720 194° South 456 525 36,000  Level FlightAware
02:54PM 32.1520 -78.5040 194° South 456 525 36,000  Level FlightAware
02:55PM 32.0460 -78.5350 194° South 456 525 36,000  Level FlightAware
02:56PM 31.9420 -78.5660 194° South 456 525 36,000  Level FlightAware
02:56PM 31.8770 -78.5850 194° South 456 525 36,000  Level FlightAware
02:57PM 31.7920 -78.6100 194° South 456 525 36,000  Level FlightAware
02:58PM 31.7330 -78.6270 194° South 456 525 36,000  Level FlightAware
02:58PM 31.6670 -78.6460 194° South 456 525 36,000  Level FlightAware
02:59PM 31.5870 -78.6700 194° South 456 525 36,000  Level FlightAware
03:00PM 31.5220 -78.6890 194° South 456 525 36,000  Level FlightAware
03:00PM 31.4580 -78.7070 193° South 456 525 36,000  Level FlightAware
03:01PM 31.3950 -78.7260 194° South 456 525 36,000  Level FlightAware
03:01PM 31.3310 -78.7450 194° South 456 525 36,000  Level FlightAware
03:02PM 31.3100 -78.7510 194° South 456 525 36,000  Level FlightAware
03:03PM 30.9786 -78.8414 194° South 454 522 36,000  Level Jacksonville Center
03:05PM 30.7408 -78.9086 194° South 461 531 36,000  Level Miami Center
03:06PM 30.6131 -78.9447 194° South 470 541 36,000  Level Miami Center
03:07PM 30.4936 -78.9928 199° South 465 535 36,000  Level Miami Center
03:08PM 30.3719 -79.0383 198° South 465 535 36,000  Level Miami Center
03:09PM 30.2650 -79.0819 199° South 460 529 36,000  Level Miami Center
03:10PM 30.1478 -79.1250 198° South 460 529 36,000  Level Miami Center
03:11PM 30.0239 -79.1703 198° South 460 529 36,000  Level Miami Center
03:12PM 29.9042 -79.2228 201° Southwest 466 536 36,000  Level Miami Center
03:13PM 29.7806 -79.2678 198° South 466 536 36,000  Level Miami Center
03:19PM 29.0550 -79.5380 198° South 444 511 36,000  Level FlightAware
03:19PM 28.9920 -79.5620 198° South 451 519 36,000  Level FlightAware
03:20PM 28.9190 -79.5890 198° South 453 521 36,000  Level FlightAware
03:21PM 28.7830 -79.6400 198° South 455 524 36,000  Level FlightAware
03:22PM 28.7160 -79.6650 198° South 455 524 36,000  Level FlightAware
03:22PM 28.6440 -79.6910 198° South 454 522 36,000  Level FlightAware
03:23PM 28.5060 -79.7420 198° South 454 522 36,000  Level FlightAware
03:24PM 28.4090 -79.7780 198° South 453 521 36,000  Level FlightAware
03:25PM 28.2910 -79.8220 198° South 454 522 36,000  Level FlightAware
03:26PM 28.1690 -79.8660 198° South 455 524 36,000  Level FlightAware
03:27PM 28.0650 -79.9050 198° South 455 524 36,000  Level FlightAware
03:27PM 27.9990 -79.9290 198° South 454 522 36,000  Level FlightAware
03:28PM 27.9390 -79.9510 198° South 454 522 36,000  Level FlightAware
03:29PM 27.8700 -79.9760 198° South 454 522 36,000  Level FlightAware
03:30PM 27.7370 -80.0240 198° South 457 526 36,000  Level FlightAware
03:30PM 27.6570 -80.0530 198° South 459 528 36,000  Level FlightAware
03:31PM 27.5910 -80.0770 198° South 461 531 36,000  Level FlightAware
03:31PM 27.5290 -80.1000 198° South 462 532 36,000  Level FlightAware
03:32PM 27.4490 -80.1290 198° South 461 531 36,000  Level FlightAware
03:33PM 27.3260 -80.1730 198° South 461 531 36,000  Level FlightAware
03:34PM 27.2680 -80.1940 198° South 463 533 36,000  Level FlightAware
03:34PM 27.1980 -80.2190 198° South 465 535 36,000  Level FlightAware
03:35PM 27.0420 -80.2760 198° South 465 535 36,000  Level FlightAware
03:36PM 26.9070 -80.3240 198° South 468 539 36,000  Level FlightAware
03:37PM 26.7960 -80.3640 198° South 469 540 36,000  Level FlightAware
03:39PM 26.6470 -80.4170 198° South 468 539 36,000  Level FlightAware
03:39PM 26.5910 -80.4370 198° South 468 539 36,000  Level FlightAware
03:39PM 26.5260 -80.4600 198° South 467 537 36,000  Level FlightAware
03:40PM 26.4510 -80.4870 198° South 467 537 36,000  Level FlightAware
03:41PM 26.3760 -80.5130 197° South 467 537 36,000  Level FlightAware
03:41PM 26.2990 -80.5410 198° South 467 537 36,000  Level FlightAware
03:42PM 26.1870 -80.5800 197° South 468 539 36,000  Level FlightAware
03:43PM 26.1280 -80.6010 198° South 469 540 36,000  Level FlightAware
03:43PM 26.0490 -80.6290 198° South 468 539 36,000  Level FlightAware
03:45PM 25.9100 -80.6920 202° Southwest 471 542 36,000  Level FlightAware
03:45PM 25.8340 -80.7550 217° Southwest 472 543 36,000  Level FlightAware
03:46PM 25.7770 -80.8010 216° Southwest 473 544 36,000  Level FlightAware
03:46PM 25.7110 -80.8540 216° Southwest 474 545 36,000  Level FlightAware
03:47PM 25.6620 -80.8940 216° Southwest 474 545 36,000 -300 Level FlightAware
03:48PM 25.5880 -80.9540 216° Southwest 475 547 35,700 -720 Descending FlightAware
03:48PM 25.5340 -80.9980 216° Southwest 469 540 35,200 -960 Descending FlightAware
03:49PM 25.4660 -81.0530 216° Southwest 454 522 34,600 -1,020 Descending FlightAware
03:49PM 25.3980 -81.1080 216° Southwest 446 513 33,900 -1,020 Descending FlightAware
03:50PM 25.3090 -81.1800 216° Southwest 434 499 33,000 -1,020 Descending FlightAware
03:51PM 25.2600 -81.2190 216° Southwest 435 501 32,500 -1,020 Descending FlightAware
03:51PM 25.2030 -81.2650 216° Southwest 431 496 31,900 -960 Descending FlightAware
03:52PM 25.1170 -81.3330 216° Southwest 422 486 31,100 -480 Descending FlightAware
03:53PM 25.0130 -81.4170 216° Southwest 424 488 31,000 -120 Descending FlightAware
03:54PM 24.9570 -81.4620 216° Southwest 428 493 31,000  Level FlightAware
03:55PM 24.8930 -81.5130 216° Southwest 428 493 31,000  Level FlightAware
03:55PM 24.8410 -81.5540 216° Southwest 427 491 31,000  Level FlightAware
03:56PM 24.7900 -81.5950 216° Southwest 427 491 31,000  Level FlightAware
03:57PM 24.6940 -81.6710 216° Southwest 427 491 31,000  Level FlightAware
03:57PM 24.6220 -81.7280 216° Southwest 419 482 31,000  Level FlightAware
03:58PM 24.5740 -81.7670 216° Southwest 421 484 31,000  Level FlightAware
03:59PM 24.5170 -81.8280 224° Southwest 423 487 31,000  Level FlightAware
03:59PM 24.4710 -81.8900 231° Southwest 425 489 31,000  Level FlightAware
04:00PM 24.4330 -81.9410 231° Southwest 422 486 31,000  Level FlightAware
04:00PM 24.3820 -82.0100 231° Southwest 420 483 31,000  Level FlightAware
04:01PM 24.3550 -82.0460 231° Southwest 420 483 31,000  Level FlightAware
04:01PM 24.3200 -82.0920 230° Southwest 419 482 31,000  Level FlightAware
04:02PM 24.2690 -82.1620 231° Southwest 420 483 31,000 -1,680 Level FlightAware
04:03PM 24.2010 -82.2520 230° Southwest 439 505 28,500 -1,800 Descending FlightAware
04:04PM 24.1180 -82.3610 230° Southwest 433 498 27,400 -660 Descending FlightAware
04:05PM 24.0790 -82.4120 230° Southwest 433 498 27,400  Level FlightAware
04:05PM 24.0380 -82.4650 230° Southwest 433 498 27,400  Level FlightAware
04:06PM 24.0120 -82.5000 231° Southwest 433 498 27,400  Level FlightAware
04:06PM 23.9720 -82.5520 230° Southwest 433 498 27,400  Level FlightAware
04:07PM 23.9180 -82.6220 230° Southwest 433 498 27,400  Level FlightAware
04:07PM 23.8920 -82.6570 231° Southwest 433 498 27,400  Level FlightAware
04:13PM 23.3198 -82.4995 166° South  Level Estimated
04:14PM 23.2072 -82.4686 166° South  Level Estimated
04:15PM 23.0946 -82.4379 166° South  Level Estimated
04:16PM 22.9891 -82.4091 166° South  Level Estimated
04:17PM 22.9891 -82.4091 51° Northeast  Level Estimated
04:18PM 22.9891 -82.4091 51° Northeast  Level Estimated
04:19PM 22.9891 -82.4091 51° Northeast  Level Estimated
04:20PM 22.9891 -82.4091 51° Northeast  Level Estimated
04:21PM 22.9891 -82.4091 51° Northeast  Level Estimated
04:22PM 22.9891 -82.4091 51° Northeast  Level Estimated
04:23PM 22.9891 -82.4091 51° Northeast  Level Estimated
04:24PM 22.9891 -82.4091 51° Northeast  Level Estimated
04:25PM 22.9891 -82.4091 51° Northeast  Level Estimated
04:26PM 22.9891 -82.4091 51° Northeast  Level Estimated
04:27PM 22.9891 -82.4091 51° Northeast  Level Estimated
04:28PM 22.9891 -82.4091 51° Northeast  Level Estimated
04:29PM 22.9891 -82.4091 51° Northeast  Level Estimated
04:30PM 22.9891 -82.4091 51° Northeast  Level Estimated
04:31PM 22.9891 -82.4091 51° Northeast  Level Estimated
04:32PM 22.9891 -82.4091 51° Northeast  Level Estimated
04:33PM 22.9891 -82.4091 51° Northeast  Level Estimated
04:34PM 22.9891 -82.4091 51° Northeast  Level Estimated
04:35PM 22.9891 -82.4091 51° Northeast  Level Estimated
04:36PM 22.9891 -82.4091 51° Northeast  Level Estimated
04:37PM 22.9891 -82.4091 51° Northeast  Level Estimated